createdAt,value
2022-11-25T00:00:07.142Z,23.90
2022-11-25T00:05:30.465Z,22.30
2022-11-25T00:10:33.868Z,23.13
2022-11-25T00:15:37.268Z,21.73
2022-11-25T00:20:40.887Z,22.43
2022-11-25T00:25:44.305Z,26.30
2022-11-25T00:30:47.783Z,22.03
2022-11-25T00:35:51.088Z,24.57
2022-11-25T00:41:14.122Z,24.50
2022-11-25T00:46:17.620Z,24.87
2022-11-25T00:51:21.109Z,22.63
2022-11-25T00:56:24.240Z,21.63
2022-11-25T01:01:28.066Z,21.37
2022-11-25T01:06:31.236Z,22.70
2022-11-25T01:11:34.661Z,23.60
2022-11-25T01:16:37.871Z,21.77
2022-11-25T01:21:41.608Z,21.63
2022-11-25T01:26:46.093Z,22.77
2022-11-25T01:31:49.534Z,23.63
2022-11-25T01:36:53.268Z,22.10
2022-11-25T01:41:56.637Z,22.87
2022-11-25T01:47:21.436Z,21.17
2022-11-25T01:52:32.434Z,20.97
2022-11-25T01:57:41.263Z,23.33
2022-11-25T02:02:45.038Z,19.63
2022-11-25T02:07:51.815Z,22.63
2022-11-25T02:12:55.707Z,18.97
2022-11-25T02:17:59.398Z,22.87
2022-11-25T02:23:22.830Z,21.97
2022-11-25T02:28:30.394Z,20.90
2022-11-25T02:33:34.029Z,19.90
2022-11-25T02:38:57.251Z,21.27
2022-11-25T02:44:02.073Z,19.90
2022-11-25T02:49:10.129Z,20.00
2022-11-25T02:54:16.250Z,21.07
2022-11-25T02:59:19.918Z,22.60
2022-11-25T03:04:23.423Z,19.33
2022-11-25T03:09:27.118Z,22.43
2022-11-25T03:14:30.597Z,21.67
2022-11-25T03:19:34.049Z,23.70
2022-11-25T03:24:37.548Z,21.70
2022-11-25T03:29:41.150Z,23.53
2022-11-25T03:34:44.657Z,22.50
2022-11-25T03:39:48.258Z,20.93
2022-11-25T03:44:51.708Z,22.30
2022-11-25T03:49:54.816Z,21.83
2022-11-25T03:54:58.290Z,21.53
2022-11-25T04:00:02.601Z,22.73
2022-11-25T04:05:06.459Z,21.33
2022-11-25T04:10:10.952Z,19.07
2022-11-25T04:15:16.540Z,20.07
2022-11-25T04:20:20.249Z,20.43
2022-11-25T04:25:23.937Z,20.27
2022-11-25T04:30:27.467Z,19.87
2022-11-25T04:35:31.129Z,20.67
2022-11-25T04:40:34.558Z,21.03
2022-11-25T04:46:06.328Z,21.17
2022-11-25T04:51:01.189Z,20.30
2022-11-25T04:56:04.888Z,20.37
2022-11-25T05:01:08.724Z,20.43
2022-11-25T05:06:12.252Z,21.83
2022-11-25T05:11:15.759Z,21.40
2022-11-25T05:16:19.320Z,18.57
2022-11-25T05:21:22.569Z,19.10
2022-11-25T05:26:26.098Z,19.23
2022-11-25T05:31:29.521Z,21.80
2022-11-25T05:36:33.201Z,18.63
2022-11-25T05:41:36.750Z,20.53
2022-11-25T05:46:40.327Z,20.17
2022-11-25T05:51:43.910Z,21.73
2022-11-25T05:56:47.679Z,22.57
2022-11-25T06:01:54.494Z,21.43
2022-11-25T06:06:58.180Z,23.70
2022-11-25T06:12:01.518Z,24.53
2022-11-25T06:17:05.298Z,27.17
2022-11-25T06:22:08.419Z,23.53
2022-11-25T06:27:11.929Z,22.43
2022-11-25T06:32:15.640Z,22.63
2022-11-25T06:37:19.219Z,21.93
2022-11-25T06:42:22.440Z,25.33
2022-11-25T06:47:26.568Z,22.83
2022-11-25T06:52:32.709Z,23.83
2022-11-25T06:57:38.775Z,22.03
2022-11-25T07:02:48.030Z,21.57
2022-11-25T07:07:53.213Z,19.03
2022-11-25T07:12:56.803Z,19.50
2022-11-25T07:18:00.171Z,17.10
2022-11-25T07:23:03.760Z,16.37
2022-11-25T07:28:07.319Z,14.77
2022-11-25T07:33:10.946Z,17.40
2022-11-25T07:38:14.740Z,16.40
2022-11-25T07:43:18.750Z,15.70
2022-11-25T07:48:22.669Z,17.33
2022-11-25T07:53:26.219Z,15.40
2022-11-25T07:58:29.450Z,15.53
2022-11-25T08:03:34.740Z,16.90
2022-11-25T08:08:39.454Z,16.33
2022-11-25T08:13:44.199Z,17.10
2022-11-25T08:18:48.639Z,15.63
2022-11-25T08:23:53.260Z,18.20
2022-11-25T08:29:00.309Z,18.17
2022-11-25T08:34:04.672Z,16.83
2022-11-25T08:39:28.851Z,19.37
2022-11-25T08:44:32.831Z,18.17
2022-11-25T08:49:41.260Z,20.70
2022-11-25T08:54:45.669Z,19.60
2022-11-25T08:59:50.929Z,23.90
2022-11-25T09:04:54.411Z,21.30
2022-11-25T09:09:57.660Z,20.07
2022-11-25T09:15:01.333Z,17.93
2022-11-25T09:20:05.899Z,18.83
2022-11-25T09:25:09.993Z,17.93
2022-11-25T09:30:14.237Z,19.23
2022-11-25T09:35:31.257Z,18.47
2022-11-25T09:41:44.481Z,19.17
2022-11-25T09:47:20.970Z,19.80
2022-11-25T09:53:02.796Z,20.10
2022-11-25T09:58:25.034Z,19.97
2022-11-25T10:03:48.499Z,20.70
2022-11-25T10:09:14.562Z,19.17
2022-11-25T10:14:29.259Z,20.47
2022-11-25T10:20:03.989Z,19.97
2022-11-25T10:33:02.321Z,21.70
2022-11-25T10:38:49.192Z,20.27
2022-11-25T10:50:37.608Z,24.23
2022-11-25T12:04:26.060Z,22.17
2022-11-25T12:09:33.302Z,21.40
2022-11-25T12:14:44.660Z,23.47
2022-11-25T12:20:07.987Z,22.83
2022-11-25T12:25:14.747Z,22.67
2022-11-25T12:30:23.443Z,22.97
2022-11-25T12:35:52.035Z,22.93
2022-11-25T12:41:19.719Z,25.30
2022-11-25T12:46:45.444Z,24.00
2022-11-25T12:51:52.263Z,24.30
2022-11-25T13:03:48.622Z,23.07
2022-11-25T13:09:25.385Z,21.60
2022-11-25T13:15:07.387Z,26.23
2022-11-25T13:20:29.978Z,24.37
2022-11-25T13:25:34.846Z,21.60
2022-11-25T13:30:40.705Z,24.97
2022-11-25T13:35:44.884Z,21.20
2022-11-25T13:40:58.669Z,20.30
2022-11-25T13:46:02.941Z,22.43
2022-11-25T13:51:23.222Z,22.47
2022-11-25T13:56:32.097Z,21.23
2022-11-25T14:01:36.252Z,22.93
2022-11-25T14:06:42.832Z,22.90
2022-11-25T14:11:53.035Z,21.30
2022-11-25T14:17:05.429Z,21.13
2022-11-25T14:22:18.311Z,24.53
2022-11-25T14:27:27.301Z,22.70
2022-11-25T14:32:40.945Z,20.27
2022-11-25T14:38:09.163Z,20.77
2022-11-25T14:43:25.215Z,19.57
2022-11-25T14:48:28.930Z,20.57
2022-11-25T14:53:48.533Z,21.90
2022-11-25T14:58:54.424Z,24.53
2022-11-25T15:04:05.732Z,19.67
2022-11-25T15:09:32.602Z,19.93
2022-11-25T15:14:39.745Z,20.93
2022-11-25T15:19:43.084Z,19.23
2022-11-25T15:24:53.236Z,21.10
2022-11-25T15:29:59.447Z,21.30
2022-11-25T15:35:04.782Z,20.37
2022-11-25T15:40:33.187Z,19.57
2022-11-25T15:45:47.612Z,19.23
2022-11-25T15:50:51.534Z,18.17
2022-11-25T15:56:00.485Z,18.03
2022-11-25T16:01:15.904Z,19.20
2022-11-25T16:06:25.566Z,18.10
2022-11-25T16:11:33.844Z,19.43
2022-11-25T16:16:37.296Z,21.13
2022-11-25T16:21:52.423Z,21.07
2022-11-25T16:27:21.036Z,19.10
2022-11-25T16:32:28.422Z,21.63
2022-11-25T16:37:31.703Z,21.47
2022-11-25T16:42:36.055Z,22.83
2022-11-25T16:47:39.911Z,22.73
2022-11-25T16:52:44.247Z,21.97
2022-11-25T16:57:48.388Z,20.33
2022-11-25T17:02:52.141Z,20.23
2022-11-25T17:07:57.516Z,19.50
2022-11-25T17:13:03.800Z,20.63
2022-11-25T17:18:09.544Z,21.50
2022-11-25T17:23:17.296Z,22.83
2022-11-25T17:28:22.893Z,26.87
2022-11-25T17:33:26.685Z,28.40
2022-11-25T17:38:30.587Z,26.40
2022-11-25T17:43:36.253Z,26.37
2022-11-25T17:48:45.738Z,26.73
2022-11-25T17:53:54.503Z,27.53
2022-11-25T17:59:12.200Z,25.63
2022-11-25T18:04:25.440Z,26.17
2022-11-25T18:09:31.199Z,29.10
2022-11-25T18:14:37.549Z,26.63
2022-11-25T18:19:41.577Z,26.77
2022-11-25T18:24:46.381Z,26.73
2022-11-25T18:29:51.371Z,26.53
2022-11-25T18:34:55.760Z,24.63
2022-11-25T18:40:00.030Z,22.27
2022-11-25T18:45:05.158Z,21.47
2022-11-25T18:50:24.907Z,23.00
2022-11-25T18:55:32.480Z,22.50
2022-11-25T19:00:39.985Z,21.20
2022-11-25T19:05:45.469Z,20.53
2022-11-25T19:10:51.738Z,20.23
2022-11-25T19:16:07.032Z,20.13
2022-11-25T19:21:17.169Z,20.00
2022-11-25T19:26:30.561Z,20.90
2022-11-25T19:31:36.702Z,19.37
2022-11-25T19:36:41.606Z,24.73
2022-11-25T19:41:48.358Z,21.67
2022-11-25T19:52:26.421Z,22.67
2022-11-25T19:57:31.299Z,22.53
2022-11-25T20:02:36.858Z,20.77
2022-11-25T20:07:47.572Z,19.17
2022-11-25T20:12:53.374Z,20.73
2022-11-25T20:18:01.400Z,22.57
2022-11-25T20:23:16.691Z,21.53
2022-11-25T20:28:26.560Z,22.70
2022-11-25T20:33:31.658Z,21.30
2022-11-25T20:38:37.638Z,19.40
2022-11-25T20:43:44.490Z,21.20
2022-11-25T20:48:59.093Z,27.90
2022-11-25T20:54:03.662Z,31.50
2022-11-25T20:59:23.759Z,31.27
2022-11-25T21:04:29.561Z,35.10
2022-11-25T21:09:36.158Z,37.17
2022-11-25T21:14:40.142Z,41.53
2022-11-25T21:19:45.137Z,45.20
2022-11-25T21:24:50.072Z,43.50
2022-11-25T21:29:56.108Z,39.60
2022-11-25T21:35:02.870Z,36.33
2022-11-25T21:40:17.510Z,34.90
2022-11-25T21:45:20.917Z,36.73
2022-11-25T21:50:24.433Z,36.83
2022-11-25T21:55:28.095Z,40.00
2022-11-25T22:00:31.468Z,41.77
2022-11-25T22:05:35.235Z,36.97
2022-11-25T22:10:40.888Z,37.17
2022-11-25T22:15:45.266Z,35.87
2022-11-25T22:20:53.256Z,35.60
2022-11-25T22:25:59.421Z,27.20
2022-11-25T22:31:07.968Z,28.03
2022-11-25T22:36:37.173Z,25.80
2022-11-25T22:41:43.083Z,26.87
2022-11-25T22:46:47.259Z,26.77
2022-11-25T22:51:50.448Z,26.57
2022-11-25T22:56:53.912Z,25.43
2022-11-25T23:01:57.170Z,25.27
2022-11-25T23:07:00.557Z,24.60
2022-11-25T23:12:04.313Z,24.20
2022-11-25T23:17:27.611Z,23.73
2022-11-25T23:22:31.089Z,24.93
2022-11-25T23:27:37.258Z,23.67
2022-11-25T23:32:40.388Z,25.40
2022-11-25T23:37:43.721Z,22.70
2022-11-25T23:42:47.576Z,25.80
2022-11-25T23:47:52.799Z,22.70
2022-11-25T23:53:01.900Z,22.83
2022-11-25T23:58:16.279Z,23.43
